Time;durP1;ratioP1;P1;durP2;ratioP2;P2;SDS_P1;SDS_P2;PMS_P1;PMS_P2;Temp;Humidity;BMP_temperature;BMP_pressure;BME280_temperature;BME280_humidity;BME280_pressure;Samples;Min_cycle;Max_cycle;Signal;HPM_P1;HPM_P2
2023/07/14 00:01:36;;;;;;;2.80;2.60;;;20.80;93.80;;;;;;4994671;28;20553;-77
2023/07/14 00:04:03;;;;;;;2.23;2.03;;;20.80;93.80;;;;;;4995414;28;20870;-81
2023/07/14 00:06:33;;;;;;;3.17;2.50;;;20.80;93.80;;;;;;4994396;28;20470;-78
2023/07/14 00:09:01;;;;;;;3.87;2.70;;;20.80;93.80;;;;;;4994611;28;20498;-80
2023/07/14 00:11:29;;;;;;;3.20;2.90;;;20.80;93.80;;;;;;4994657;28;20505;-77
2023/07/14 00:13:57;;;;;;;3.23;2.33;;;20.80;93.70;;;;;;4994468;28;20505;-77
2023/07/14 00:16:28;;;;;;;3.63;2.53;;;20.70;93.80;;;;;;4991834;28;20476;-77
2023/07/14 00:18:55;;;;;;;4.73;2.40;;;20.70;93.90;;;;;;4994789;28;20549;-77
2023/07/14 00:21:25;;;;;;;3.70;2.50;;;20.70;94.20;;;;;;4994601;28;20473;-77
2023/07/14 00:23:58;;;;;;;2.67;2.37;;;20.60;93.90;;;;;;4994506;28;20473;-77
2023/07/14 00:26:27;;;;;;;2.80;2.60;;;20.60;93.90;;;;;;4994955;28;20477;-77
2023/07/14 00:28:54;;;;;;;2.70;2.50;;;20.60;94.10;;;;;;4994255;28;20462;-77
2023/07/14 00:31:23;;;;;;;2.50;2.30;;;20.60;94.10;;;;;;4994531;28;20536;-77
2023/07/14 00:33:52;;;;;;;3.10;2.80;;;20.50;94.10;;;;;;4994329;28;20532;-77
2023/07/14 00:36:21;;;;;;;3.30;2.90;;;20.50;94.20;;;;;;4955794;28;20555;-77
2023/07/14 00:38:48;;;;;;;2.60;2.33;;;20.50;94.20;;;;;;4955786;29;20554;-77
2023/07/14 00:41:19;;;;;;;2.70;2.50;;;20.50;94.40;;;;;;4955716;29;20466;-81
2023/07/14 00:43:50;;;;;;;3.40;2.93;;;20.40;94.40;;;;;;4955251;28;20475;-81
2023/07/14 00:46:25;;;;;;;2.70;2.50;;;20.40;94.50;;;;;;4955812;29;20511;-79
2023/07/14 00:48:54;;;;;;;3.50;3.10;;;20.40;94.50;;;;;;4955293;29;20479;-81
2023/07/14 00:51:24;;;;;;;4.53;2.77;;;20.40;94.50;;;;;;4956086;29;20471;-81
2023/07/14 00:53:51;;;;;;;2.67;2.43;;;20.40;94.60;;;;;;4955220;28;20868;-81
2023/07/14 00:56:37;;;;;;;2.40;2.20;;;20.30;94.60;;;;;;4955568;29;20879;-80
2023/07/14 00:59:15;;;;;;;2.60;2.40;;;20.30;94.60;;;;;;4955080;29;20475;-77
2023/07/14 01:02:19;;;;;;;3.33;2.90;;;20.30;94.70;;;;;;4935675;29;20482;-77
2023/07/14 01:04:49;;;;;;;3.13;2.87;;;20.30;94.80;;;;;;4935688;29;20535;-81
2023/07/14 01:07:24;;;;;;;3.00;2.80;;;20.30;94.90;;;;;;4943494;28;20499;-77
2023/07/14 01:09:54;;;;;;;2.43;2.23;;;20.30;95.00;;;;;;4958562;28;20479;-78
2023/07/14 01:12:24;;;;;;;2.73;2.53;;;20.20;95.10;;;;;;4959564;28;20966;-78
2023/07/14 01:14:55;;;;;;;3.13;2.73;;;20.20;95.30;;;;;;4946950;28;21014;-81
2023/07/14 01:17:23;;;;;;;3.20;2.90;;;20.20;95.30;;;;;;4939590;29;20958;-81
2023/07/14 01:19:53;;;;;;;3.40;3.10;;;20.20;95.40;;;;;;4939502;29;20553;-81
2023/07/14 01:22:28;;;;;;;3.23;3.03;;;20.20;95.50;;;;;;4939024;29;20563;-81
2023/07/14 01:25:04;;;;;;;3.10;2.90;;;20.10;95.60;;;;;;4938389;29;20483;-78
2023/07/14 01:27:33;;;;;;;4.37;3.80;;;20.10;95.70;;;;;;4939913;29;20464;-82
2023/07/14 01:30:02;;;;;;;4.23;3.70;;;20.00;95.70;;;;;;4939024;29;20488;-81
2023/07/14 01:32:36;;;;;;;5.40;3.43;;;20.00;95.80;;;;;;4939845;29;20484;-82
2023/07/14 01:35:05;;;;;;;4.13;3.83;;;20.00;95.90;;;;;;4946157;29;20466;-81
2023/07/14 01:37:35;;;;;;;3.70;3.20;;;20.00;96.00;;;;;;4958994;28;20475;-78
2023/07/14 01:40:05;;;;;;;4.30;3.90;;;19.90;96.10;;;;;;4958294;28;20472;-81
2023/07/14 01:42:34;;;;;;;10.23;3.03;;;19.90;96.10;;;;;;4958862;28;20479;-81
2023/07/14 01:45:01;;;;;;;3.40;3.10;;;19.90;96.20;;;;;;4958109;28;20882;-81
2023/07/14 01:47:30;;;;;;;2.80;2.50;;;19.80;96.50;;;;;;4958589;28;20471;-81
2023/07/14 01:50:01;;;;;;;3.50;2.93;;;19.90;96.60;;;;;;4957933;29;20571;-81
2023/07/14 01:52:32;;;;;;;3.77;3.47;;;19.90;96.60;;;;;;4958463;28;20479;-81
2023/07/14 01:55:04;;;;;;;3.57;3.27;;;19.80;97.00;;;;;;4957700;28;20482;-81
2023/07/14 01:57:36;;;;;;;4.37;2.97;;;19.80;96.80;;;;;;4958239;28;20491;-82
2023/07/14 02:00:09;;;;;;;3.30;3.10;;;19.80;97.00;;;;;;4965279;28;20471;-81
2023/07/14 02:02:37;;;;;;;3.20;2.90;;;19.80;97.00;;;;;;4977736;28;20482;-78
2023/07/14 02:05:12;;;;;;;4.20;3.23;;;19.80;97.00;;;;;;4976685;28;20474;-81
2023/07/14 02:07:39;;;;;;;3.13;2.93;;;19.80;97.10;;;;;;4977479;28;20471;-82
2023/07/14 02:10:13;;;;;;;3.43;3.13;;;19.80;97.20;;;;;;4977254;28;20534;-79
2023/07/14 02:12:46;;;;;;;3.93;3.17;;;19.70;97.30;;;;;;4977545;28;20485;-81
2023/07/14 02:15:17;;;;;;;4.10;3.80;;;19.70;97.40;;;;;;4976634;28;21157;-80
2023/07/14 02:17:45;;;;;;;3.60;3.30;;;19.70;97.50;;;;;;4977189;28;20537;-80
2023/07/14 02:20:18;;;;;;;3.50;3.20;;;19.70;97.50;;;;;;4975841;28;20455;-81
2023/07/14 02:22:46;;;;;;;4.87;3.30;;;19.70;97.70;;;;;;4977154;28;20502;-81
2023/07/14 02:25:17;;;;;;;4.63;3.73;;;19.70;97.80;;;;;;4975884;28;20865;-81
2023/07/14 02:27:46;;;;;;;3.97;3.60;;;19.60;97.90;;;;;;4976923;28;20482;-81
2023/07/14 02:30:18;;;;;;;3.53;3.23;;;19.60;98.10;;;;;;4962006;28;20967;-81
2023/07/14 02:32:51;;;;;;;4.47;4.07;;;19.60;98.20;;;;;;4957615;28;20468;-81
2023/07/14 02:35:33;;;;;;;3.30;3.07;;;19.60;98.30;;;;;;4955947;29;20937;-81
2023/07/14 02:38:03;;;;;;;3.87;3.47;;;19.50;98.40;;;;;;4971023;28;20463;-81
2023/07/14 02:40:44;;;;;;;3.80;3.50;;;19.60;98.60;;;;;;4976741;28;20509;-81
2023/07/14 02:43:18;;;;;;;4.17;3.77;;;19.60;98.60;;;;;;4974874;28;20537;-82
2023/07/14 02:45:51;;;;;;;4.20;3.23;;;19.50;98.70;;;;;;4975364;28;20546;-82
2023/07/14 02:48:22;;;;;;;4.40;3.83;;;19.60;98.80;;;;;;4976216;28;20556;-81
2023/07/14 02:50:50;;;;;;;3.30;3.10;;;19.50;98.90;;;;;;4976517;28;20821;-77
2023/07/14 02:53:17;;;;;;;3.40;3.10;;;19.50;98.90;;;;;;4976589;28;20959;-82
2023/07/14 02:55:45;;;;;;;5.10;4.10;;;19.60;99.00;;;;;;4976513;28;20975;-77
2023/07/14 02:58:15;;;;;;;3.33;3.03;;;19.60;99.10;;;;;;4976383;28;20477;-81
2023/07/14 03:00:42;;;;;;;4.80;4.23;;;19.60;99.10;;;;;;4974612;28;20788;-77
2023/07/14 03:03:09;;;;;;;4.93;3.93;;;19.60;99.30;;;;;;4976316;28;20478;-81
2023/07/14 03:05:37;;;;;;;4.27;3.10;;;19.50;99.50;;;;;;4976916;28;20475;-81
2023/07/14 03:08:07;;;;;;;4.17;3.80;;;19.50;99.60;;;;;;4966378;28;20471;-77
2023/07/14 03:10:34;;;;;;;3.90;3.60;;;19.50;99.70;;;;;;4975726;28;20485;-77
2023/07/14 03:13:01;;;;;;;3.90;3.47;;;19.60;99.80;;;;;;4976480;28;20466;-82
2023/07/14 03:15:29;;;;;;;4.53;4.13;;;19.50;99.90;;;;;;4976040;28;20471;-77
2023/07/14 03:17:56;;;;;;;3.97;3.57;;;19.40;99.90;;;;;;4976415;28;20541;-78
2023/07/14 03:20:23;;;;;;;4.10;3.80;;;19.40;99.90;;;;;;4975980;28;20470;-77
2023/07/14 03:22:50;;;;;;;4.77;3.80;;;19.40;99.90;;;;;;4976173;28;20483;-77
2023/07/14 03:25:17;;;;;;;5.83;5.33;;;19.50;99.90;;;;;;4975579;28;20482;-77
2023/07/14 03:27:47;;;;;;;4.17;3.87;;;19.40;99.90;;;;;;4976214;28;20796;-77
2023/07/14 03:30:15;;;;;;;5.50;5.00;;;19.40;99.90;;;;;;4974817;28;20482;-77
2023/07/14 03:32:43;;;;;;;5.33;4.90;;;19.40;99.90;;;;;;4976637;28;20467;-78
2023/07/14 03:35:11;;;;;;;6.80;5.97;;;19.50;99.90;;;;;;4975156;28;20550;-81
2023/07/14 03:37:38;;;;;;;5.90;5.40;;;19.50;99.90;;;;;;4975457;28;20483;-81
2023/07/14 03:40:08;;;;;;;5.40;4.90;;;19.50;99.90;;;;;;4974896;28;20474;-77
2023/07/14 03:42:37;;;;;;;6.60;6.00;;;19.50;99.90;;;;;;4976239;28;20470;-82
2023/07/14 03:45:05;;;;;;;6.07;5.47;;;19.60;99.90;;;;;;4974510;28;20479;-81
2023/07/14 03:47:32;;;;;;;6.67;5.27;;;19.60;99.90;;;;;;4976296;28;20470;-81
2023/07/14 03:50:01;;;;;;;5.27;4.60;;;19.60;99.90;;;;;;4976614;28;20467;-77
2023/07/14 03:52:28;;;;;;;5.00;4.50;;;19.60;99.90;;;;;;4975286;28;20958;-77
2023/07/14 03:54:55;;;;;;;4.77;4.03;;;19.60;99.90;;;;;;4975939;28;20550;-77
2023/07/14 03:57:22;;;;;;;4.10;3.80;;;19.60;99.90;;;;;;4975322;28;20466;-81
2023/07/14 03:59:50;;;;;;;8.87;4.40;;;19.60;99.90;;;;;;4975437;28;20493;-81
2023/07/14 04:02:17;;;;;;;4.17;3.77;;;19.60;99.90;;;;;;4975387;28;20550;-82
2023/07/14 04:04:45;;;;;;;4.50;4.00;;;19.60;99.90;;;;;;4975532;28;20831;-77
2023/07/14 04:07:16;;;;;;;7.30;4.67;;;19.60;99.90;;;;;;4975419;28;20550;-81
2023/07/14 04:09:47;;;;;;;4.83;4.23;;;19.60;99.90;;;;;;4975903;28;20534;-81
2023/07/14 04:12:14;;;;;;;3.83;3.53;;;19.60;99.90;;;;;;4974434;28;20817;-77
2023/07/14 04:14:41;;;;;;;3.93;3.63;;;19.70;99.90;;;;;;4975575;28;20556;-77
2023/07/14 04:17:08;;;;;;;6.10;4.90;;;19.70;99.90;;;;;;4974992;28;20479;-82
2023/07/14 04:19:35;;;;;;;4.83;4.43;;;19.70;99.90;;;;;;4968110;28;20522;-81
2023/07/14 04:22:03;;;;;;;4.70;4.20;;;19.70;99.90;;;;;;4975558;28;20485;-81
2023/07/14 04:24:31;;;;;;;5.23;3.97;;;19.70;99.90;;;;;;4974667;28;20498;-78
2023/07/14 04:26:58;;;;;;;5.03;4.53;;;19.70;99.90;;;;;;4975679;28;20475;-77
2023/07/14 04:29:25;;;;;;;4.10;3.80;;;19.80;99.90;;;;;;4974570;28;20489;-78
2023/07/14 04:31:52;;;;;;;4.00;3.77;;;19.80;99.90;;;;;;4975427;28;20497;-77
2023/07/14 04:34:19;;;;;;;3.63;3.33;;;19.80;99.90;;;;;;4974889;28;20493;-78
2023/07/14 04:36:47;;;;;;;4.57;4.10;;;19.80;99.90;;;;;;4975553;28;20585;-81
2023/07/14 04:39:14;;;;;;;4.43;3.87;;;19.90;99.90;;;;;;4974484;28;20782;-78
2023/07/14 04:41:44;;;;;;;4.80;4.00;;;19.90;99.90;;;;;;4975197;28;20466;-78
2023/07/14 04:44:14;;;;;;;4.60;4.20;;;20.00;99.90;;;;;;4974408;28;20475;-82
2023/07/14 04:46:41;;;;;;;5.10;3.80;;;19.90;99.90;;;;;;4958404;28;20481;-82
2023/07/14 04:49:09;;;;;;;7.53;4.33;;;20.00;99.90;;;;;;4975657;28;20479;-81
2023/07/14 04:51:37;;;;;;;6.63;4.10;;;20.00;99.90;;;;;;4974321;28;20471;-77
2023/07/14 04:54:04;;;;;;;4.33;3.93;;;20.10;99.90;;;;;;4974684;28;20870;-78
2023/07/14 04:56:34;;;;;;;4.20;3.80;;;20.10;99.90;;;;;;4973984;28;20475;-77
2023/07/14 04:59:03;;;;;;;3.73;3.43;;;20.10;99.90;;;;;;4974354;28;20987;-81
2023/07/14 05:01:30;;;;;;;5.00;4.50;;;20.20;99.90;;;;;;4974568;28;20901;-82
2023/07/14 05:03:57;;;;;;;3.53;3.23;;;20.20;99.90;;;;;;4974700;28;20491;-81
2023/07/14 05:06:29;;;;;;;4.77;4.37;;;20.20;99.90;;;;;;4973724;28;20486;-81
2023/07/14 05:08:56;;;;;;;4.50;3.30;;;20.30;99.90;;;;;;4974916;28;21023;-77
2023/07/14 05:11:23;;;;;;;2.83;2.63;;;20.30;99.90;;;;;;4974086;28;20478;-78
2023/07/14 05:13:53;;;;;;;3.63;3.33;;;20.40;99.90;;;;;;4975079;28;20478;-82
2023/07/14 05:16:21;;;;;;;4.00;3.43;;;20.40;99.90;;;;;;4973622;28;20489;-78
2023/07/14 05:18:48;;;;;;;3.53;3.23;;;20.40;99.90;;;;;;4974841;28;20805;-78
2023/07/14 05:21:16;;;;;;;4.00;3.53;;;20.40;99.90;;;;;;4974475;28;20976;-78
2023/07/14 05:23:42;;;;;;;3.70;3.40;;;20.50;99.90;;;;;;4974591;28;20474;-78
2023/07/14 05:26:09;;;;;;;4.03;3.63;;;20.60;99.90;;;;;;4974561;28;20498;-77
2023/07/14 05:28:36;;;;;;;3.93;3.63;;;20.60;99.90;;;;;;4973985;28;20490;-81
2023/07/14 05:31:05;;;;;;;6.80;3.60;;;20.60;99.90;;;;;;4975107;28;20481;-81
2023/07/14 05:33:34;;;;;;;3.27;3.00;;;20.70;99.90;;;;;;4973187;28;20515;-78
2023/07/14 05:36:01;;;;;;;3.93;3.50;;;20.70;99.90;;;;;;4974902;28;20467;-81
2023/07/14 05:38:29;;;;;;;7.13;6.03;;;20.70;99.90;;;;;;4974395;28;20812;-81
2023/07/14 05:40:56;;;;;;;5.90;5.10;;;20.70;99.90;;;;;;4975019;28;20952;-80
2023/07/14 05:43:25;;;;;;;6.60;5.10;;;20.80;99.90;;;;;;4973905;28;20526;-77
2023/07/14 05:45:54;;;;;;;5.07;4.10;;;20.80;99.90;;;;;;4974958;28;20846;-80
2023/07/14 05:48:22;;;;;;;5.20;4.00;;;20.80;99.90;;;;;;4974412;28;20479;-80
2023/07/14 05:50:50;;;;;;;4.93;3.53;;;20.90;99.90;;;;;;4973418;28;20945;-80
2023/07/14 05:53:18;;;;;;;3.97;3.60;;;20.90;99.90;;;;;;4975137;28;20474;-77
2023/07/14 05:55:46;;;;;;;3.90;3.17;;;21.00;99.90;;;;;;4977433;28;20482;-76
2023/07/14 05:58:13;;;;;;;5.47;3.90;;;21.00;99.80;;;;;;4977733;28;20963;-76
2023/07/14 06:00:40;;;;;;;4.03;3.53;;;21.10;99.80;;;;;;4977264;28;21011;-77
2023/07/14 06:03:12;;;;;;;5.93;3.13;;;21.20;99.60;;;;;;4978300;28;20467;-80
2023/07/14 06:06:06;;;;;;;5.50;4.00;;;21.20;99.30;;;;;;4977947;28;20988;-80
2023/07/14 06:15:20;;;;;;;11.70;4.07;;;21.40;98.70;;;;;;4944578;28;20465;-78
2023/07/14 06:17:47;;;;;;;5.90;3.80;;;21.50;98.50;;;;;;4977442;28;20836;-78
2023/07/14 06:20:14;;;;;;;4.00;2.90;;;21.60;98.40;;;;;;4977408;28;20490;-78
2023/07/14 06:22:42;;;;;;;4.50;3.20;;;21.60;98.10;;;;;;4977942;28;20483;-78
2023/07/14 06:25:09;;;;;;;3.67;2.97;;;21.70;97.60;;;;;;4976977;28;20477;-78
2023/07/14 06:27:36;;;;;;;3.90;3.13;;;21.80;97.40;;;;;;4977010;28;20474;-78
2023/07/14 06:30:04;;;;;;;3.60;3.30;;;21.90;97.20;;;;;;4976861;28;20475;-78
2023/07/14 06:32:32;;;;;;;7.73;2.77;;;22.00;97.10;;;;;;4977534;28;20475;-78
2023/07/14 06:34:59;;;;;;;4.37;3.20;;;22.20;96.30;;;;;;4976675;28;20820;-78
2023/07/14 06:37:26;;;;;;;3.33;2.70;;;22.30;95.50;;;;;;4978066;28;20489;-82
2023/07/14 06:39:55;;;;;;;4.67;3.10;;;22.40;95.00;;;;;;4976752;28;20558;-78
2023/07/14 06:42:22;;;;;;;3.23;3.00;;;22.50;94.30;;;;;;4977476;28;20471;-78
2023/07/14 06:44:49;;;;;;;3.10;2.47;;;22.50;94.00;;;;;;4977000;28;20546;-81
2023/07/14 06:47:16;;;;;;;2.90;2.33;;;22.60;94.00;;;;;;4977739;28;20490;-82
2023/07/14 06:49:55;;;;;;;4.57;2.30;;;22.70;93.80;;;;;;4977563;28;20475;-82
2023/07/14 06:52:22;;;;;;;2.80;2.60;;;22.70;93.20;;;;;;4977575;28;20471;-83
2023/07/14 06:54:51;;;;;;;3.43;2.27;;;22.90;93.20;;;;;;4977561;28;20467;-83
2023/07/14 06:57:21;;;;;;;2.80;2.47;;;23.00;93.10;;;;;;4977197;28;20483;-83
2023/07/14 07:00:01;;;;;;;3.90;2.67;;;23.10;92.90;;;;;;4966958;28;20964;-83
2023/07/14 07:02:34;;;;;;;3.60;3.30;;;23.20;92.60;;;;;;4968581;28;20592;-84
2023/07/14 07:05:06;;;;;;;3.83;2.57;;;23.30;92.50;;;;;;4948951;28;20524;-83
2023/07/14 07:07:36;;;;;;;3.40;2.60;;;23.40;92.50;;;;;;4976702;28;20503;-83
2023/07/14 07:10:14;;;;;;;3.87;3.27;;;23.60;92.30;;;;;;4967415;28;20797;-82
2023/07/14 07:12:41;;;;;;;4.07;2.40;;;23.80;92.10;;;;;;4975808;28;20473;-82
2023/07/14 07:15:15;;;;;;;3.20;2.90;;;23.90;91.70;;;;;;4975307;28;20486;-82
2023/07/14 07:17:43;;;;;;;2.93;2.73;;;24.00;91.60;;;;;;4976294;28;20486;-83
2023/07/14 07:20:12;;;;;;;4.70;3.70;;;24.20;91.50;;;;;;4975613;28;20785;-82
2023/07/14 07:22:42;;;;;;;3.37;3.07;;;24.30;91.10;;;;;;4975974;28;20813;-82
2023/07/14 07:25:10;;;;;;;2.60;2.40;;;24.50;90.70;;;;;;4974158;28;20790;-83
2023/07/14 07:27:37;;;;;;;2.53;2.33;;;24.50;90.10;;;;;;4976028;28;21064;-82
2023/07/14 07:30:05;;;;;;;5.53;2.37;;;24.70;89.20;;;;;;4975037;28;20474;-82
2023/07/14 07:32:35;;;;;;;3.67;3.10;;;24.80;88.20;;;;;;4968777;28;20463;-82
2023/07/14 07:35:06;;;;;;;3.43;3.10;;;24.80;88.10;;;;;;4966180;28;20475;-83
2023/07/14 07:37:43;;;;;;;3.23;2.93;;;24.80;87.40;;;;;;4975708;28;20805;-83
2023/07/14 07:40:13;;;;;;;3.27;2.40;;;24.90;87.90;;;;;;4966272;28;20478;-83
2023/07/14 07:43:03;;;;;;;3.33;2.47;;;24.90;87.50;;;;;;4975692;28;20502;-83
2023/07/14 07:45:30;;;;;;;11.10;7.00;;;25.00;87.80;;;;;;4965271;28;20471;-78
2023/07/14 07:47:58;;;;;;;4.83;3.00;;;25.00;87.70;;;;;;4975734;28;20471;-81
2023/07/14 07:50:26;;;;;;;5.20;2.80;;;24.90;87.00;;;;;;4975109;28;20471;-81
2023/07/14 07:52:55;;;;;;;2.90;2.60;;;24.90;86.90;;;;;;4976263;28;20470;-81
2023/07/14 07:55:22;;;;;;;3.03;2.73;;;25.00;87.20;;;;;;4975144;28;20861;-81
2023/07/14 07:57:49;;;;;;;3.00;2.70;;;25.00;87.70;;;;;;4976141;28;20559;-80
2023/07/14 08:00:16;;;;;;;3.80;3.50;;;25.00;87.90;;;;;;4975490;28;20481;-81
2023/07/14 08:02:44;;;;;;;4.47;3.27;;;25.10;87.30;;;;;;4965251;28;20848;-81
2023/07/14 08:05:13;;;;;;;2.60;2.40;;;25.00;86.90;;;;;;4963937;28;20482;-80
2023/07/14 08:07:40;;;;;;;4.60;2.63;;;25.00;86.50;;;;;;4964859;28;20471;-77
2023/07/14 08:10:10;;;;;;;3.70;3.40;;;25.00;86.40;;;;;;4962945;28;20565;-77
2023/07/14 08:12:36;;;;;;;3.10;2.80;;;25.00;86.20;;;;;;4964487;28;20850;-76
2023/07/14 08:15:04;;;;;;;3.03;2.80;;;25.10;85.80;;;;;;4963487;28;21878;-82
2023/07/14 08:17:32;;;;;;;4.00;2.63;;;25.20;85.10;;;;;;4962700;28;20480;-78
2023/07/14 08:20:00;;;;;;;2.70;2.50;;;25.30;85.60;;;;;;4965169;28;20543;-78
2023/07/14 08:22:27;;;;;;;3.20;2.37;;;25.40;85.30;;;;;;4966253;28;20535;-81
2023/07/14 08:24:57;;;;;;;5.43;4.10;;;25.50;85.90;;;;;;4966210;28;20479;-81
2023/07/14 08:27:26;;;;;;;4.60;3.33;;;25.60;85.60;;;;;;4966953;28;20485;-81
2023/07/14 08:29:53;;;;;;;3.30;2.87;;;25.60;85.10;;;;;;4975983;28;20467;-77
2023/07/14 08:32:21;;;;;;;4.70;3.00;;;25.70;84.60;;;;;;4973579;28;20464;-78
2023/07/14 08:34:48;;;;;;;3.33;1.93;;;25.80;83.80;;;;;;4968250;28;20507;-78
2023/07/14 08:37:15;;;;;;;4.50;2.43;;;25.80;82.60;;;;;;4968605;28;20468;-82
2023/07/14 08:39:43;;;;;;;3.10;2.57;;;25.70;83.00;;;;;;4971224;28;20463;-83
2023/07/14 08:42:34;;;;;;;3.47;2.20;;;25.70;82.50;;;;;;4974514;28;20490;-81
2023/07/14 08:45:25;;;;;;;2.07;1.87;;;25.80;82.30;;;;;;4976211;28;20462;-82
2023/07/14 08:48:00;;;;;;;2.20;2.00;;;25.80;82.10;;;;;;4979235;28;20470;-82
2023/07/14 08:50:30;;;;;;;4.87;3.00;;;25.90;82.20;;;;;;4979179;28;20807;-81
2023/07/14 08:53:07;;;;;;;3.50;2.50;;;25.80;81.70;;;;;;4978567;28;20462;-81
2023/07/14 08:55:40;;;;;;;2.70;1.80;;;25.70;82.30;;;;;;4967057;28;20459;-82
2023/07/14 08:58:18;;;;;;;3.60;2.20;;;25.70;81.70;;;;;;4980206;28;20458;-77
2023/07/14 09:00:56;;;;;;;6.60;3.57;;;25.70;80.80;;;;;;4975236;28;20464;-77
2023/07/14 09:03:37;;;;;;;4.63;4.20;;;25.70;81.30;;;;;;4973000;28;20498;-78
2023/07/14 09:06:13;;;;;;;3.23;2.93;;;25.80;80.20;;;;;;4975943;28;20480;-78
2023/07/14 09:08:46;;;;;;;4.77;3.20;;;25.90;80.30;;;;;;4979250;28;20467;-81
2023/07/14 09:11:30;;;;;;;2.60;2.10;;;25.90;80.40;;;;;;4983559;28;20461;-81
2023/07/14 09:14:18;;;;;;;3.20;2.23;;;26.00;80.00;;;;;;4984118;28;20458;-80
2023/07/14 09:16:55;;;;;;;4.60;2.60;;;26.00;79.30;;;;;;4979489;28;20496;-76
2023/07/14 09:19:31;;;;;;;3.03;2.70;;;26.00;80.10;;;;;;4985743;28;20487;-81
2023/07/14 09:22:05;;;;;;;3.83;2.80;;;26.00;79.90;;;;;;4979542;28;20462;-81
2023/07/14 09:24:40;;;;;;;3.10;2.30;;;25.90;79.70;;;;;;4976278;28;20475;-81
2023/07/14 09:27:13;;;;;;;3.90;2.63;;;26.00;80.10;;;;;;4979536;28;20465;-82
2023/07/14 09:29:44;;;;;;;3.60;2.50;;;26.00;79.50;;;;;;4981600;28;20529;-78
2023/07/14 09:32:17;;;;;;;2.13;1.93;;;26.00;79.30;;;;;;4985363;28;20562;-78
2023/07/14 09:34:54;;;;;;;2.43;2.10;;;26.10;78.30;;;;;;4989448;28;20472;-82
2023/07/14 09:37:29;;;;;;;2.50;2.40;;;26.20;76.90;;;;;;4985701;28;20473;-82
2023/07/14 09:40:05;;;;;;;3.23;2.27;;;26.20;76.30;;;;;;4991352;28;20488;-78
2023/07/14 09:42:40;;;;;;;4.60;2.10;;;26.20;76.50;;;;;;4987776;28;20535;-82
2023/07/14 09:45:17;;;;;;;3.20;2.60;;;26.20;75.40;;;;;;4986101;28;20468;-78
2023/07/14 09:47:47;;;;;;;2.40;2.20;;;26.20;75.80;;;;;;4987741;28;20479;-81
2023/07/14 09:50:17;;;;;;;2.80;2.60;;;26.30;75.40;;;;;;4991016;28;20488;-81
2023/07/14 09:52:51;;;;;;;7.00;6.30;;;26.30;76.10;;;;;;4988414;28;20460;-81
2023/07/14 09:55:20;;;;;;;4.40;3.57;;;26.30;76.40;;;;;;4980104;28;20473;-78
2023/07/14 09:57:51;;;;;;;4.47;3.80;;;26.30;75.20;;;;;;4973194;28;20464;-78
2023/07/14 10:00:24;;;;;;;3.10;2.80;;;26.30;74.50;;;;;;4978365;28;20459;-82
2023/07/14 10:02:59;;;;;;;3.60;3.30;;;26.30;74.60;;;;;;4966235;28;20485;-79
2023/07/14 10:05:45;;;;;;;3.23;2.23;;;26.40;74.80;;;;;;4965359;28;20569;-78
2023/07/14 10:08:26;;;;;;;2.67;2.47;;;26.30;74.80;;;;;;4966074;28;20838;-78
2023/07/14 10:10:57;;;;;;;2.53;2.20;;;26.30;75.20;;;;;;4966296;28;20466;-81
2023/07/14 10:13:27;;;;;;;2.87;2.00;;;26.30;74.30;;;;;;4972960;28;20473;-82
2023/07/14 10:15:59;;;;;;;2.23;2.03;;;26.30;74.00;;;;;;4975705;28;20472;-78
2023/07/14 10:18:27;;;;;;;3.47;2.20;;;26.30;74.10;;;;;;4976285;28;20557;-81
2023/07/14 10:21:05;;;;;;;3.30;2.33;;;26.40;74.50;;;;;;4977129;28;20471;-82
2023/07/14 10:23:33;;;;;;;2.43;2.23;;;26.50;73.90;;;;;;4977418;28;20502;-77
2023/07/14 10:26:02;;;;;;;4.33;3.57;;;26.50;72.80;;;;;;4976701;28;20809;-82
2023/07/14 10:28:30;;;;;;;2.50;2.30;;;26.60;72.50;;;;;;4977380;28;20479;-81
2023/07/14 10:31:04;;;;;;;5.17;3.20;;;26.60;72.40;;;;;;4976606;28;20961;-78
2023/07/14 10:36:09;;;;;;;4.00;2.17;;;26.70;72.30;;;;;;4982236;23;20937;-77
2023/07/14 10:38:42;;;;;;;3.63;2.40;;;26.70;71.60;;;;;;4976744;28;20553;-82
2023/07/14 10:41:11;;;;;;;3.33;1.93;;;26.80;72.00;;;;;;4975933;28;20466;-82
2023/07/14 10:43:44;;;;;;;4.73;2.03;;;26.80;71.30;;;;;;4976289;28;20539;-78
2023/07/14 10:46:17;;;;;;;2.37;2.20;;;26.80;71.30;;;;;;4976972;28;20572;-77
2023/07/14 10:48:48;;;;;;;2.60;2.40;;;26.80;70.50;;;;;;4976253;28;20477;-78
2023/07/14 10:51:31;;;;;;;2.23;2.03;;;26.90;70.70;;;;;;4976370;28;20486;-77
2023/07/14 10:54:03;;;;;;;3.27;2.17;;;26.80;70.60;;;;;;4976629;28;20464;-81
2023/07/14 10:56:36;;;;;;;2.10;1.90;;;26.80;71.50;;;;;;4976469;28;20555;-82
2023/07/14 10:59:13;;;;;;;4.63;3.50;;;26.80;72.00;;;;;;4976552;28;20880;-81
2023/07/14 11:01:53;;;;;;;4.30;4.00;;;26.90;72.00;;;;;;4976111;28;20480;-82
2023/07/14 11:04:26;;;;;;;5.63;4.70;;;26.90;72.10;;;;;;4976490;28;20872;-78
2023/07/14 11:06:56;;;;;;;4.67;4.27;;;26.90;71.00;;;;;;4975944;28;20473;-78
2023/07/14 11:09:23;;;;;;;4.20;3.40;;;27.00;71.20;;;;;;4976283;28;20554;-78
2023/07/14 11:12:03;;;;;;;2.50;2.20;;;27.00;70.70;;;;;;4975966;28;20481;-81
2023/07/14 11:14:40;;;;;;;2.53;2.33;;;26.90;70.20;;;;;;4976301;28;20561;-78
2023/07/14 11:17:17;;;;;;;2.50;2.30;;;26.90;70.00;;;;;;4975618;28;20468;-82
2023/07/14 11:19:57;;;;;;;2.97;2.77;;;26.90;69.00;;;;;;4975320;28;20475;-78
2023/07/14 11:22:38;;;;;;;1.80;1.70;;;26.80;68.50;;;;;;4975839;28;20475;-77
2023/07/14 11:25:15;;;;;;;2.30;2.10;;;26.80;69.20;;;;;;4975501;28;20497;-77
2023/07/14 11:27:51;;;;;;;3.30;2.50;;;26.80;70.00;;;;;;4976472;28;20469;-81
2023/07/14 11:30:22;;;;;;;4.13;3.77;;;26.80;69.60;;;;;;4976970;28;20461;-81
2023/07/14 11:32:57;;;;;;;3.20;3.00;;;26.80;69.40;;;;;;4975925;28;20473;-81
2023/07/14 11:35:32;;;;;;;3.93;3.63;;;26.90;69.80;;;;;;4976421;28;20568;-81
2023/07/14 11:38:22;;;;;;;4.97;3.00;;;26.90;69.80;;;;;;4975749;28;20565;-82
2023/07/14 11:40:52;;;;;;;4.00;3.60;;;26.90;69.80;;;;;;4974929;28;20585;-78
2023/07/14 11:43:22;;;;;;;8.47;3.27;;;26.90;69.80;;;;;;4976352;28;20475;-77
2023/07/14 11:45:56;;;;;;;5.40;4.27;;;27.00;69.70;;;;;;4975594;28;20854;-81
2023/07/14 11:48:34;;;;;;;5.00;3.80;;;27.10;69.00;;;;;;4975706;28;20478;-77
2023/07/14 11:51:07;;;;;;;3.70;3.40;;;27.10;68.30;;;;;;4975170;28;20464;-81
2023/07/14 11:53:35;;;;;;;4.67;3.90;;;27.20;68.10;;;;;;4976011;28;20970;-81
2023/07/14 11:56:24;;;;;;;4.53;3.27;;;27.20;68.60;;;;;;4974785;28;20473;-77
2023/07/14 11:59:05;;;;;;;4.00;3.40;;;27.20;68.90;;;;;;4975633;28;20481;-81
2023/07/14 12:01:34;;;;;;;4.77;4.30;;;27.20;70.00;;;;;;4975316;28;20472;-77
2023/07/14 12:04:25;;;;;;;3.47;3.17;;;27.20;69.50;;;;;;4974693;28;20477;-77
2023/07/14 12:07:11;;;;;;;3.07;2.87;;;27.20;68.70;;;;;;4975129;28;20499;-80
2023/07/14 12:09:57;;;;;;;6.07;3.13;;;27.30;68.30;;;;;;4975515;28;20521;-81
2023/07/14 12:12:25;;;;;;;3.30;3.10;;;27.20;68.60;;;;;;4975663;28;20946;-81
2023/07/14 12:14:53;;;;;;;2.60;2.40;;;27.10;68.20;;;;;;4975431;28;20603;-81
2023/07/14 12:17:48;;;;;;;5.13;3.20;;;27.10;68.30;;;;;;4974671;28;20484;-77
2023/07/14 12:20:39;;;;;;;4.83;2.33;;;27.00;67.50;;;;;;4974624;28;20508;-76
2023/07/14 12:23:14;;;;;;;3.33;3.03;;;27.00;66.30;;;;;;4969724;28;20547;-77
2023/07/14 12:25:45;;;;;;;3.07;2.23;;;26.90;65.90;;;;;;4975801;28;20472;-77
2023/07/14 12:28:17;;;;;;;3.03;2.73;;;26.80;66.10;;;;;;4975199;28;20496;-80
2023/07/14 12:30:51;;;;;;;2.53;2.30;;;26.70;66.40;;;;;;4975523;28;20984;-81
2023/07/14 12:33:21;;;;;;;3.60;2.80;;;26.70;67.30;;;;;;4975088;28;20881;-80
2023/07/14 12:35:51;;;;;;;2.83;2.63;;;26.70;67.60;;;;;;4975226;28;20545;-80
2023/07/14 12:38:22;;;;;;;2.90;2.70;;;26.60;67.50;;;;;;4965422;28;20495;-77
2023/07/14 12:40:55;;;;;;;3.97;3.67;;;26.60;67.60;;;;;;4974295;28;20551;-77
2023/07/14 12:43:34;;;;;;;3.20;2.90;;;26.60;67.80;;;;;;4974918;28;20482;-77
2023/07/14 12:46:05;;;;;;;2.93;2.73;;;26.60;66.70;;;;;;4975259;28;20482;-81
2023/07/14 12:48:34;;;;;;;2.90;2.70;;;26.70;66.10;;;;;;4974531;28;20483;-80
2023/07/14 12:51:15;;;;;;;2.60;2.40;;;26.70;65.60;;;;;;4975342;28;20545;-80
2023/07/14 12:53:49;;;;;;;3.40;3.10;;;26.80;66.00;;;;;;4974377;28;20474;-77
2023/07/14 12:56:16;;;;;;;2.77;2.50;;;26.80;65.90;;;;;;4974535;28;20537;-77
2023/07/14 12:58:43;;;;;;;4.37;3.97;;;26.80;66.00;;;;;;4974290;28;20549;-77
2023/07/14 13:01:10;;;;;;;3.40;3.10;;;26.90;66.30;;;;;;4974786;28;20497;-77
2023/07/14 13:03:38;;;;;;;5.17;3.50;;;26.90;65.70;;;;;;4973668;28;20485;-77
2023/07/14 13:06:06;;;;;;;10.93;3.30;;;26.90;64.60;;;;;;4965241;28;20502;-77
2023/07/14 13:08:33;;;;;;;7.80;3.53;;;26.90;64.90;;;;;;4974037;28;21097;-77
2023/07/14 13:11:05;;;;;;;4.50;3.53;;;26.90;64.30;;;;;;4974660;28;20880;-77
2023/07/14 13:13:44;;;;;;;10.10;4.40;;;26.90;63.90;;;;;;4966485;28;20981;-81
2023/07/14 13:16:12;;;;;;;8.00;3.20;;;27.00;63.90;;;;;;4974655;28;20479;-82